Time;durP1;ratioP1;P1;durP2;ratioP2;P2;SDS_P1;SDS_P2;PMS_P1;PMS_P2;Temp;Humidity;BMP_temperature;BMP_pressure;BME280_temperature;BME280_humidity;BME280_pressure;Samples;Min_cycle;Max_cycle;Signal;HPM_P1;HPM_P2
2021/01/21 00:00:42;;;;;;;271.40;130.77;;;;;;;;;;4402958;32;20364;-53
2021/01/21 00:03:08;;;;;;;284.30;136.83;;;;;;;;;;4403131;32;20221;-56
2021/01/21 00:05:33;;;;;;;245.93;121.80;;;;;;;;;;4402861;32;20312;-55
2021/01/21 00:07:59;;;;;;;244.00;122.93;;;;;;;;;;4402881;32;20297;-54
2021/01/21 00:10:25;;;;;;;224.33;118.10;;;;;;;;;;4388682;32;20885;-55
2021/01/21 00:12:51;;;;;;;261.60;129.93;;;;;;;;;;4403353;32;20335;-54
2021/01/21 00:15:17;;;;;;;237.60;122.03;;;;;;;;;;4402326;32;20217;-54
2021/01/21 00:17:43;;;;;;;209.93;117.03;;;;;;;;;;4402868;32;20279;-54
2021/01/21 00:20:08;;;;;;;221.80;110.67;;;;;;;;;;4402743;32;20374;-55
2021/01/21 00:22:34;;;;;;;262.93;130.77;;;;;;;;;;4402913;32;20695;-53
2021/01/21 00:24:59;;;;;;;233.23;121.23;;;;;;;;;;4402868;32;20303;-59
2021/01/21 00:27:25;;;;;;;246.03;129.57;;;;;;;;;;4402989;32;20327;-59
2021/01/21 00:29:51;;;;;;;239.67;123.60;;;;;;;;;;4402609;32;20303;-59
2021/01/21 00:32:17;;;;;;;250.37;127.80;;;;;;;;;;4401252;32;20640;-60
2021/01/21 00:34:42;;;;;;;264.50;134.90;;;;;;;;;;4400515;32;20374;-59
2021/01/21 00:37:08;;;;;;;265.73;136.17;;;;;;;;;;4400757;32;20271;-60
2021/01/21 00:39:33;;;;;;;248.63;128.17;;;;;;;;;;4400809;32;20831;-59
2021/01/21 00:41:59;;;;;;;256.10;132.77;;;;;;;;;;4385430;32;20312;-59
2021/01/21 00:44:25;;;;;;;253.87;130.77;;;;;;;;;;4400081;32;20388;-60
2021/01/21 00:46:50;;;;;;;270.07;136.07;;;;;;;;;;4401295;32;20387;-60
2021/01/21 00:49:16;;;;;;;263.47;134.23;;;;;;;;;;4401060;32;20527;-59
2021/01/21 00:51:41;;;;;;;265.23;136.27;;;;;;;;;;4400817;32;20669;-60
2021/01/21 00:54:07;;;;;;;271.87;137.53;;;;;;;;;;4401009;32;20297;-60
2021/01/21 00:56:32;;;;;;;258.90;137.30;;;;;;;;;;4400754;32;20225;-61
2021/01/21 00:58:58;;;;;;;299.27;160.00;;;;;;;;;;4400342;32;20797;-61
2021/01/21 01:01:23;;;;;;;295.07;150.60;;;;;;;;;;4400917;32;20288;-55
2021/01/21 01:03:49;;;;;;;294.37;148.60;;;;;;;;;;4400196;32;20781;-57
2021/01/21 01:06:14;;;;;;;284.47;151.93;;;;;;;;;;4385036;32;20248;-58
2021/01/21 01:08:40;;;;;;;312.13;159.80;;;;;;;;;;4400237;32;20296;-57
2021/01/21 01:11:05;;;;;;;306.43;158.00;;;;;;;;;;4400636;32;20237;-57
2021/01/21 01:13:31;;;;;;;320.30;172.13;;;;;;;;;;4400354;32;20764;-56
2021/01/21 01:15:57;;;;;;;353.70;182.37;;;;;;;;;;4386754;32;20846;-56
2021/01/21 01:18:22;;;;;;;356.60;188.23;;;;;;;;;;4401740;32;20257;-56
2021/01/21 01:20:48;;;;;;;306.77;159.73;;;;;;;;;;4402357;32;20394;-56
2021/01/21 01:23:15;;;;;;;290.30;148.40;;;;;;;;;;4386198;32;20302;-56
2021/01/21 01:25:40;;;;;;;250.93;132.30;;;;;;;;;;4402047;32;20372;-55
2021/01/21 01:28:06;;;;;;;303.23;151.70;;;;;;;;;;4402317;32;20592;-55
2021/01/21 01:30:31;;;;;;;285.00;149.00;;;;;;;;;;4401314;32;20229;-55
2021/01/21 01:32:57;;;;;;;291.17;151.23;;;;;;;;;;4401345;32;20255;-55
2021/01/21 01:35:23;;;;;;;300.40;152.77;;;;;;;;;;4400879;32;20304;-56
2021/01/21 01:37:48;;;;;;;307.37;158.43;;;;;;;;;;4387959;32;20245;-56
2021/01/21 01:40:15;;;;;;;322.33;178.80;;;;;;;;;;4400845;32;20361;-61
2021/01/21 01:42:41;;;;;;;350.27;188.07;;;;;;;;;;4401698;32;20747;-56
2021/01/21 01:45:09;;;;;;;313.50;172.47;;;;;;;;;;4401314;32;20286;-57
2021/01/21 01:47:37;;;;;;;321.53;168.03;;;;;;;;;;4401556;32;20270;-56
2021/01/21 01:50:04;;;;;;;327.43;161.17;;;;;;;;;;4399969;32;20304;-59
2021/01/21 01:52:30;;;;;;;340.43;172.13;;;;;;;;;;4402122;32;20285;-59
2021/01/21 01:54:55;;;;;;;334.27;182.53;;;;;;;;;;4397872;32;20338;-57
2021/01/21 01:57:22;;;;;;;342.77;179.83;;;;;;;;;;4402452;32;20229;-59
2021/01/21 01:59:50;;;;;;;339.07;183.03;;;;;;;;;;4385552;32;20260;-58
2021/01/21 02:02:16;;;;;;;350.63;183.73;;;;;;;;;;4398975;32;20444;-59
2021/01/21 02:04:42;;;;;;;388.43;198.40;;;;;;;;;;4402248;32;20284;-60
2021/01/21 02:07:07;;;;;;;353.80;185.20;;;;;;;;;;4402642;32;20221;-60
2021/01/21 02:09:34;;;;;;;358.90;176.23;;;;;;;;;;4402173;32;20299;-61
2021/01/21 02:12:08;;;;;;;332.63;183.17;;;;;;;;;;4402018;32;20314;-59
2021/01/21 02:15:01;;;;;;;335.67;176.03;;;;;;;;;;4402185;32;20208;-59
2021/01/21 02:17:38;;;;;;;280.23;148.20;;;;;;;;;;4402612;32;20250;-59
2021/01/21 02:20:13;;;;;;;265.87;142.73;;;;;;;;;;4396911;32;20274;-59
2021/01/21 02:23:03;;;;;;;298.97;155.73;;;;;;;;;;4402790;32;20212;-58
2021/01/21 02:25:38;;;;;;;319.17;160.90;;;;;;;;;;4402058;32;21127;-60
2021/01/21 02:28:06;;;;;;;287.90;151.67;;;;;;;;;;4402323;32;20244;-59
2021/01/21 02:30:53;;;;;;;290.30;149.13;;;;;;;;;;4385819;32;20265;-60
2021/01/21 02:33:24;;;;;;;265.30;140.47;;;;;;;;;;4402289;32;20235;-59
2021/01/21 02:35:52;;;;;;;285.27;142.20;;;;;;;;;;4385430;32;20331;-54
2021/01/21 02:38:20;;;;;;;270.57;142.83;;;;;;;;;;4398650;32;20290;-53
2021/01/21 02:40:47;;;;;;;306.53;160.90;;;;;;;;;;4387495;32;20745;-53
2021/01/21 02:43:12;;;;;;;312.10;158.77;;;;;;;;;;4402072;32;20252;-55
2021/01/21 02:45:38;;;;;;;289.43;154.67;;;;;;;;;;4402034;32;20284;-56
2021/01/21 02:48:05;;;;;;;305.80;157.83;;;;;;;;;;4401938;32;20225;-57
2021/01/21 02:50:31;;;;;;;301.57;152.30;;;;;;;;;;4401537;32;20791;-57
2021/01/21 02:53:00;;;;;;;292.63;145.20;;;;;;;;;;4385439;32;20648;-56
2021/01/21 02:55:52;;;;;;;324.07;167.83;;;;;;;;;;4401661;32;20323;-56
2021/01/21 02:58:29;;;;;;;350.63;180.40;;;;;;;;;;4401981;32;20258;-57
2021/01/21 03:01:00;;;;;;;406.13;216.83;;;;;;;;;;4385607;32;20218;-52
2021/01/21 03:03:26;;;;;;;410.63;216.30;;;;;;;;;;4395359;32;20288;-53
2021/01/21 03:05:55;;;;;;;365.87;200.57;;;;;;;;;;4401567;32;20686;-53
2021/01/21 03:08:21;;;;;;;385.27;205.70;;;;;;;;;;4402001;32;20279;-53
2021/01/21 03:10:48;;;;;;;379.93;197.23;;;;;;;;;;4404272;32;20678;-53
2021/01/21 03:13:14;;;;;;;386.20;203.60;;;;;;;;;;4404335;32;20278;-54
2021/01/21 03:15:39;;;;;;;395.37;205.63;;;;;;;;;;4403829;32;20272;-53
2021/01/21 03:18:06;;;;;;;378.20;202.77;;;;;;;;;;4403891;32;20312;-53
2021/01/21 03:20:31;;;;;;;384.23;205.17;;;;;;;;;;4404169;32;20318;-53
2021/01/21 03:22:57;;;;;;;407.97;209.20;;;;;;;;;;4404390;32;20230;-59
2021/01/21 03:25:23;;;;;;;388.30;204.47;;;;;;;;;;4404161;32;20303;-60
2021/01/21 03:27:48;;;;;;;395.23;206.97;;;;;;;;;;4402691;32;20225;-60
2021/01/21 03:30:14;;;;;;;375.80;196.47;;;;;;;;;;4404381;32;20575;-60
2021/01/21 03:32:39;;;;;;;386.77;195.83;;;;;;;;;;4404244;32;20358;-57
2021/01/21 03:35:06;;;;;;;391.00;196.67;;;;;;;;;;4404321;32;20338;-57
2021/01/21 03:37:32;;;;;;;415.60;210.53;;;;;;;;;;4390968;32;20272;-59
2021/01/21 03:39:58;;;;;;;376.07;191.97;;;;;;;;;;4404064;32;20739;-59
2021/01/21 03:42:24;;;;;;;341.37;180.90;;;;;;;;;;4404016;32;20217;-59
2021/01/21 03:44:49;;;;;;;331.30;174.20;;;;;;;;;;4404015;32;20284;-56
2021/01/21 03:47:15;;;;;;;304.47;158.10;;;;;;;;;;4375625;32;20371;-59
2021/01/21 03:49:41;;;;;;;290.73;150.97;;;;;;;;;;4402382;32;20721;-59
2021/01/21 03:52:06;;;;;;;307.50;152.70;;;;;;;;;;4404644;32;20225;-58
2021/01/21 03:54:32;;;;;;;335.90;173.90;;;;;;;;;;4403356;32;20292;-58
2021/01/21 03:56:57;;;;;;;328.43;169.53;;;;;;;;;;4403982;32;20229;-60
2021/01/21 03:59:23;;;;;;;307.50;165.83;;;;;;;;;;4404074;32;20685;-60
2021/01/21 04:01:49;;;;;;;305.60;165.40;;;;;;;;;;4404079;32;20650;-59
2021/01/21 04:04:14;;;;;;;330.33;163.53;;;;;;;;;;4402992;32;20682;-59
2021/01/21 04:06:40;;;;;;;324.83;167.40;;;;;;;;;;4390070;32;20283;-59
2021/01/21 04:09:05;;;;;;;324.23;171.30;;;;;;;;;;4403810;32;20292;-62
2021/01/21 04:11:31;;;;;;;331.07;179.17;;;;;;;;;;4403582;32;20268;-59
2021/01/21 04:13:57;;;;;;;356.93;184.27;;;;;;;;;;4403126;32;20355;-61
2021/01/21 04:16:23;;;;;;;351.90;183.20;;;;;;;;;;4388750;32;20272;-60
2021/01/21 04:18:49;;;;;;;334.43;178.03;;;;;;;;;;4403212;32;20301;-61
2021/01/21 04:21:14;;;;;;;317.73;170.00;;;;;;;;;;4402819;32;20288;-60
2021/01/21 04:23:40;;;;;;;326.23;170.83;;;;;;;;;;4403356;32;20296;-59
2021/01/21 04:26:05;;;;;;;324.57;169.63;;;;;;;;;;4403074;32;20289;-59
2021/01/21 04:28:31;;;;;;;282.63;154.17;;;;;;;;;;4403353;32;20712;-59
2021/01/21 04:30:58;;;;;;;254.67;140.10;;;;;;;;;;4391248;32;20296;-52
2021/01/21 04:33:23;;;;;;;257.40;136.83;;;;;;;;;;4403077;32;20209;-53
2021/01/21 04:35:50;;;;;;;241.60;131.03;;;;;;;;;;4402799;32;20304;-52
2021/01/21 04:38:16;;;;;;;237.07;133.80;;;;;;;;;;4403353;32;20610;-53
2021/01/21 04:40:41;;;;;;;208.03;117.83;;;;;;;;;;4402611;32;20296;-55
2021/01/21 04:43:07;;;;;;;188.70;104.70;;;;;;;;;;4403145;32;20575;-52
2021/01/21 04:45:32;;;;;;;225.17;117.40;;;;;;;;;;4403029;32;20600;-52
2021/01/21 04:48:00;;;;;;;213.13;112.33;;;;;;;;;;4402713;32;20237;-51
2021/01/21 04:50:27;;;;;;;233.17;121.60;;;;;;;;;;4389326;32;20316;-53
2021/01/21 04:52:55;;;;;;;257.23;137.23;;;;;;;;;;4403284;32;20350;-51
2021/01/21 04:55:23;;;;;;;250.97;130.20;;;;;;;;;;4402256;32;20251;-53
2021/01/21 04:57:56;;;;;;;239.67;133.37;;;;;;;;;;4403164;32;20301;-51
2021/01/21 05:00:22;;;;;;;259.50;138.97;;;;;;;;;;4403059;32;20206;-53
2021/01/21 05:02:49;;;;;;;246.53;135.63;;;;;;;;;;4402780;32;20248;-51
2021/01/21 05:05:15;;;;;;;215.10;122.93;;;;;;;;;;4402460;32;20213;-53
2021/01/21 05:07:41;;;;;;;204.57;114.67;;;;;;;;;;4402945;32;20567;-53
2021/01/21 05:10:08;;;;;;;200.47;113.93;;;;;;;;;;4402528;32;20342;-52
2021/01/21 05:12:34;;;;;;;204.97;114.13;;;;;;;;;;4387024;32;20560;-54
2021/01/21 05:15:00;;;;;;;207.07;115.17;;;;;;;;;;4402808;32;20315;-55
2021/01/21 05:17:26;;;;;;;235.87;123.87;;;;;;;;;;4402238;32;20677;-53
2021/01/21 05:19:52;;;;;;;274.93;145.80;;;;;;;;;;4386401;32;20395;-52
2021/01/21 05:22:19;;;;;;;272.70;144.57;;;;;;;;;;4399158;32;20274;-53
2021/01/21 05:24:45;;;;;;;256.13;138.33;;;;;;;;;;4402482;32;20214;-54
2021/01/21 05:27:12;;;;;;;263.20;138.87;;;;;;;;;;4388466;32;20807;-54
2021/01/21 05:29:38;;;;;;;269.77;141.00;;;;;;;;;;4402429;32;20251;-53
2021/01/21 05:32:06;;;;;;;250.60;136.77;;;;;;;;;;4386606;32;20245;-52
2021/01/21 05:34:33;;;;;;;240.97;133.47;;;;;;;;;;4402067;32;20283;-52
2021/01/21 05:37:00;;;;;;;238.23;133.07;;;;;;;;;;4402361;32;20702;-53
2021/01/21 05:39:36;;;;;;;277.43;139.80;;;;;;;;;;4402075;32;20773;-54
2021/01/21 05:42:02;;;;;;;292.60;154.47;;;;;;;;;;4388007;32;20296;-54
2021/01/21 05:44:28;;;;;;;338.33;176.43;;;;;;;;;;4386073;32;20217;-53
2021/01/21 05:46:53;;;;;;;326.63;176.83;;;;;;;;;;4384623;32;20286;-51
2021/01/21 05:49:19;;;;;;;347.73;186.40;;;;;;;;;;4399119;32;20284;-51
2021/01/21 05:51:46;;;;;;;351.40;189.80;;;;;;;;;;4402481;32;20329;-51
2021/01/21 05:54:12;;;;;;;364.23;188.70;;;;;;;;;;4398251;32;20560;-53
2021/01/21 05:56:38;;;;;;;371.70;191.77;;;;;;;;;;4401722;32;20225;-52
2021/01/21 05:59:04;;;;;;;356.53;194.50;;;;;;;;;;4402411;32;20745;-53
2021/01/21 06:01:32;;;;;;;369.70;200.27;;;;;;;;;;4402402;32;20351;-51
2021/01/21 06:03:57;;;;;;;367.80;200.70;;;;;;;;;;4401693;32;20249;-55
2021/01/21 06:06:27;;;;;;;381.97;206.40;;;;;;;;;;4402547;32;20229;-54
2021/01/21 06:08:52;;;;;;;354.93;193.60;;;;;;;;;;4401774;32;20401;-52
2021/01/21 06:11:19;;;;;;;335.07;179.77;;;;;;;;;;4401630;32;20254;-52
2021/01/21 06:13:46;;;;;;;332.67;178.40;;;;;;;;;;4402029;32;20359;-52
2021/01/21 06:16:12;;;;;;;364.43;199.00;;;;;;;;;;4402177;32;20225;-52
2021/01/21 06:18:37;;;;;;;362.03;199.97;;;;;;;;;;4387167;32;20287;-55
2021/01/21 06:21:04;;;;;;;364.30;202.77;;;;;;;;;;4402142;32;20260;-55
2021/01/21 06:23:31;;;;;;;398.27;215.70;;;;;;;;;;4402178;32;20376;-54
2021/01/21 06:25:58;;;;;;;372.53;199.53;;;;;;;;;;4399953;32;20632;-53
2021/01/21 06:28:29;;;;;;;328.73;182.73;;;;;;;;;;4398956;32;20277;-53
2021/01/21 06:30:59;;;;;;;297.77;160.33;;;;;;;;;;4402044;32;20427;-53
2021/01/21 06:33:39;;;;;;;284.20;160.37;;;;;;;;;;4400474;32;20280;-54
2021/01/21 06:36:08;;;;;;;297.83;163.83;;;;;;;;;;4395521;32;20892;-54
2021/01/21 06:38:42;;;;;;;332.83;176.63;;;;;;;;;;4383470;32;20245;-53
2021/01/21 06:41:16;;;;;;;344.70;193.03;;;;;;;;;;4399658;32;20320;-54
2021/01/21 06:43:42;;;;;;;342.63;185.07;;;;;;;;;;4400075;32;20214;-54
2021/01/21 06:46:08;;;;;;;353.00;195.57;;;;;;;;;;4403021;32;20683;-54
2021/01/21 06:48:34;;;;;;;376.60;201.10;;;;;;;;;;4402344;32;20308;-60
2021/01/21 06:51:10;;;;;;;444.67;246.80;;;;;;;;;;4389469;32;20332;-55
2021/01/21 06:53:42;;;;;;;449.07;249.10;;;;;;;;;;4400855;32;20314;-55
2021/01/21 06:56:08;;;;;;;464.03;265.07;;;;;;;;;;4404286;32;20681;-55
2021/01/21 06:58:53;;;;;;;452.33;264.83;;;;;;;;;;4404202;32;20304;-56
2021/01/21 07:01:30;;;;;;;489.50;287.90;;;;;;;;;;4388187;32;20584;-56
2021/01/21 07:04:25;;;;;;;637.70;396.37;;;;;;;;;;4388139;32;20349;-56
2021/01/21 07:06:53;;;;;;;483.80;291.67;;;;;;;;;;4403659;32;20368;-56
2021/01/21 07:09:24;;;;;;;439.13;257.53;;;;;;;;;;4403781;32;21143;-55
2021/01/21 07:11:54;;;;;;;450.67;260.17;;;;;;;;;;4404353;32;20255;-55
2021/01/21 07:14:21;;;;;;;425.03;245.83;;;;;;;;;;4392388;32;20214;-57
2021/01/21 07:16:59;;;;;;;407.80;236.47;;;;;;;;;;4403613;32;20245;-57
2021/01/21 07:19:29;;;;;;;423.33;242.03;;;;;;;;;;4402157;32;20228;-55
2021/01/21 07:21:56;;;;;;;425.90;241.77;;;;;;;;;;4404050;32;20334;-53
2021/01/21 07:24:22;;;;;;;433.10;253.90;;;;;;;;;;4404149;32;20294;-52
2021/01/21 07:26:52;;;;;;;429.90;248.80;;;;;;;;;;4404122;32;20225;-54
2021/01/21 07:29:20;;;;;;;422.77;247.73;;;;;;;;;;4404216;32;20400;-54
2021/01/21 07:31:51;;;;;;;361.80;208.27;;;;;;;;;;4383513;32;20316;-54
2021/01/21 07:34:20;;;;;;;377.67;219.03;;;;;;;;;;4399391;32;20217;-53
2021/01/21 07:36:46;;;;;;;404.60;233.27;;;;;;;;;;4401177;32;20332;-54
2021/01/21 07:39:12;;;;;;;429.20;245.47;;;;;;;;;;4403383;32;20291;-54
2021/01/21 07:41:46;;;;;;;382.70;229.07;;;;;;;;;;4400987;32;20221;-54
2021/01/21 07:44:12;;;;;;;382.17;218.83;;;;;;;;;;4389739;32;20374;-54
2021/01/21 07:46:38;;;;;;;403.17;230.03;;;;;;;;;;4403012;32;20535;-53
2021/01/21 07:49:25;;;;;;;352.73;200.77;;;;;;;;;;4403819;32;20300;-54
2021/01/21 07:52:04;;;;;;;412.17;233.03;;;;;;;;;;4403498;32;20864;-55
2021/01/21 07:54:45;;;;;;;290.07;167.70;;;;;;;;;;4401529;32;20265;-54
2021/01/21 07:57:11;;;;;;;277.00;156.80;;;;;;;;;;4404060;32;20360;-55
2021/01/21 07:59:58;;;;;;;304.47;175.90;;;;;;;;;;4404522;32;20276;-53
2021/01/21 08:02:23;;;;;;;264.30;152.37;;;;;;;;;;4401359;32;20224;-54
2021/01/21 08:04:59;;;;;;;285.87;158.90;;;;;;;;;;4403853;32;20322;-53
2021/01/21 08:07:25;;;;;;;281.83;162.90;;;;;;;;;;4397796;32;20288;-55
2021/01/21 08:10:07;;;;;;;322.50;194.10;;;;;;;;;;4395892;32;20651;-54
2021/01/21 08:12:33;;;;;;;366.13;223.03;;;;;;;;;;4399173;32;20754;-57
2021/01/21 08:14:59;;;;;;;423.17;244.27;;;;;;;;;;4394359;32;20269;-58
2021/01/21 08:17:24;;;;;;;456.80;276.27;;;;;;;;;;4403593;32;20621;-57
2021/01/21 08:19:50;;;;;;;490.97;299.30;;;;;;;;;;4404219;32;20369;-58
2021/01/21 08:22:16;;;;;;;501.10;322.40;;;;;;;;;;4387036;32;20316;-57
2021/01/21 08:24:58;;;;;;;460.17;288.87;;;;;;;;;;4399140;32;20240;-57
2021/01/21 08:27:24;;;;;;;450.10;284.40;;;;;;;;;;4403456;32;20229;-57
2021/01/21 08:29:50;;;;;;;460.80;291.07;;;;;;;;;;4403258;32;20284;-57
2021/01/21 08:32:16;;;;;;;437.23;279.73;;;;;;;;;;4402189;32;20312;-57
2021/01/21 08:34:42;;;;;;;444.53;271.07;;;;;;;;;;4387147;32;20538;-58
2021/01/21 08:37:08;;;;;;;449.13;273.80;;;;;;;;;;4387697;32;20230;-57
2021/01/21 08:39:35;;;;;;;456.87;283.30;;;;;;;;;;4402171;32;20334;-57
2021/01/21 08:42:03;;;;;;;472.37;290.30;;;;;;;;;;4400035;32;20308;-54
2021/01/21 08:44:29;;;;;;;459.37;283.30;;;;;;;;;;4384426;32;20253;-57
2021/01/21 08:47:01;;;;;;;455.53;278.53;;;;;;;;;;4400510;32;20682;-59
2021/01/21 08:49:28;;;;;;;435.37;265.57;;;;;;;;;;4395435;32;20757;-54
2021/01/21 08:52:10;;;;;;;447.87;272.93;;;;;;;;;;4399637;32;20261;-55
2021/01/21 08:54:36;;;;;;;457.13;274.63;;;;;;;;;;4393365;32;20289;-56
2021/01/21 08:57:11;;;;;;;427.93;264.63;;;;;;;;;;4401671;32;20225;-52
2021/01/21 08:59:41;;;;;;;416.70;263.93;;;;;;;;;;4401467;32;20220;-57
2021/01/21 09:02:09;;;;;;;417.87;256.93;;;;;;;;;;4387807;32;20607;-55
2021/01/21 09:04:36;;;;;;;399.90;246.07;;;;;;;;;;4401733;32;20694;-57
2021/01/21 09:07:03;;;;;;;371.07;233.77;;;;;;;;;;4385525;32;20311;-56
2021/01/21 09:09:36;;;;;;;375.53;231.40;;;;;;;;;;4394778;32;20246;-56
2021/01/21 09:12:15;;;;;;;415.33;248.77;;;;;;;;;;4386619;32;20778;-55
2021/01/21 09:14:45;;;;;;;429.70;262.27;;;;;;;;;;4401013;32;20590;-56
2021/01/21 09:17:17;;;;;;;435.53;277.13;;;;;;;;;;4385099;32;20368;-56
2021/01/21 09:19:45;;;;;;;422.80;260.97;;;;;;;;;;4401706;32;20686;-56
2021/01/21 09:22:14;;;;;;;438.37;277.70;;;;;;;;;;4401390;32;20891;-56
2021/01/21 09:25:00;;;;;;;440.73;276.53;;;;;;;;;;4400551;32;20225;-56
2021/01/21 09:27:28;;;;;;;434.40;262.93;;;;;;;;;;4401546;32;20316;-57
2021/01/21 09:29:57;;;;;;;410.17;259.63;;;;;;;;;;4401159;32;20587;-57
2021/01/21 09:32:33;;;;;;;395.07;238.63;;;;;;;;;;4387620;32;20245;-57
2021/01/21 09:35:02;;;;;;;395.60;240.37;;;;;;;;;;4400958;32;20279;-57
2021/01/21 09:37:35;;;;;;;386.27;238.90;;;;;;;;;;4380269;32;20608;-56
2021/01/21 09:40:00;;;;;;;378.30;230.23;;;;;;;;;;4395914;32;20342;-57
2021/01/21 09:42:26;;;;;;;402.30;245.30;;;;;;;;;;4382536;32;20368;-56
2021/01/21 09:44:52;;;;;;;416.03;259.40;;;;;;;;;;4398390;32;20300;-56
2021/01/21 09:47:18;;;;;;;415.43;264.37;;;;;;;;;;4401176;32;20221;-56
2021/01/21 09:49:45;;;;;;;416.07;263.70;;;;;;;;;;4396217;32;20265;-56
2021/01/21 09:52:11;;;;;;;373.17;231.07;;;;;;;;;;4398382;32;20551;-57
2021/01/21 09:54:36;;;;;;;308.70;186.13;;;;;;;;;;4376038;32;20242;-58
2021/01/21 09:57:03;;;;;;;298.13;187.70;;;;;;;;;;4385304;32;20218;-57
2021/01/21 09:59:28;;;;;;;258.90;159.83;;;;;;;;;;4397411;32;20721;-57
2021/01/21 10:01:54;;;;;;;257.63;159.43;;;;;;;;;;4401731;32;20226;-58
2021/01/21 10:04:20;;;;;;;281.83;171.00;;;;;;;;;;4401894;32;20702;-59
2021/01/21 10:06:45;;;;;;;275.23;162.37;;;;;;;;;;4390161;32;20340;-58
2021/01/21 10:09:11;;;;;;;263.60;159.33;;;;;;;;;;4391716;32;20318;-57
2021/01/21 10:11:37;;;;;;;249.30;153.07;;;;;;;;;;4385083;32;20434;-59
2021/01/21 10:14:03;;;;;;;240.77;148.70;;;;;;;;;;4397093;32;20320;-56
2021/01/21 10:16:29;;;;;;;235.73;139.63;;;;;;;;;;4398609;32;20482;-56
2021/01/21 10:18:56;;;;;;;237.07;143.50;;;;;;;;;;4397456;32;20775;-57
2021/01/21 10:21:24;;;;;;;239.27;145.60;;;;;;;;;;4386528;32;20380;-57
2021/01/21 10:23:49;;;;;;;245.70;148.53;;;;;;;;;;4389120;32;20726;-59
2021/01/21 10:26:15;;;;;;;231.80;142.80;;;;;;;;;;4375246;32;20233;-54
2021/01/21 10:28:41;;;;;;;231.97;144.27;;;;;;;;;;4365688;32;20336;-59
2021/01/21 10:31:07;;;;;;;242.13;153.23;;;;;;;;;;4370210;32;21479;-54
2021/01/21 10:33:34;;;;;;;229.80;143.23;;;;;;;;;;4361653;32;21696;-58
2021/01/21 10:35:59;;;;;;;247.07;149.97;;;;;;;;;;4370225;32;20332;-58
2021/01/21 10:38:25;;;;;;;236.87;143.07;;;;;;;;;;4359091;32;20312;-58
2021/01/21 10:40:51;;;;;;;206.10;132.27;;;;;;;;;;4369203;32;20260;-56
2021/01/21 10:43:16;;;;;;;245.77;146.43;;;;;;;;;;4371213;32;20339;-57
2021/01/21 10:45:42;;;;;;;243.23;138.67;;;;;;;;;;4372211;32;20309;-58
2021/01/21 10:48:09;;;;;;;156.57;96.97;;;;;;;;;;4372962;32;20275;-58
2021/01/21 10:50:35;;;;;;;390.23;173.23;;;;;;;;;;4371511;32;20355;-58
2021/01/21 10:53:01;;;;;;;293.77;145.47;;;;;;;;;;4353629;32;20359;-56
2021/01/21 10:55:27;;;;;;;410.07;179.20;;;;;;;;;;4391994;32;20290;-55
2021/01/21 10:57:53;;;;;;;402.70;176.03;;;;;;;;;;4367906;32;20324;-58
2021/01/21 11:00:20;;;;;;;314.60;143.93;;;;;;;;;;4355261;32;20259;-56
2021/01/21 11:02:46;;;;;;;558.90;245.07;;;;;;;;;;4372310;32;20383;-57
2021/01/21 11:05:13;;;;;;;190.77;107.77;;;;;;;;;;4374395;32;20275;-57
2021/01/21 11:07:38;;;;;;;197.77;103.80;;;;;;;;;;4369650;32;20332;-56
2021/01/21 11:10:04;;;;;;;261.07;131.77;;;;;;;;;;4362027;32;20346;-56
2021/01/21 11:12:30;;;;;;;166.60;95.77;;;;;;;;;;4368834;32;20673;-60
2021/01/21 11:14:56;;;;;;;294.83;152.23;;;;;;;;;;4355107;32;20922;-57
2021/01/21 11:17:22;;;;;;;278.23;146.20;;;;;;;;;;4369807;32;20355;-58
2021/01/21 11:19:49;;;;;;;129.27;80.33;;;;;;;;;;4366617;32;20551;-59
2021/01/21 11:22:15;;;;;;;137.03;85.20;;;;;;;;;;4351710;32;20237;-59
2021/01/21 11:24:41;;;;;;;154.20;89.60;;;;;;;;;;4355113;32;20414;-59
2021/01/21 11:27:06;;;;;;;125.73;78.30;;;;;;;;;;4385654;32;20807;-57
2021/01/21 11:29:32;;;;;;;148.50;91.43;;;;;;;;;;4384149;32;20301;-56
2021/01/21 11:31:57;;;;;;;132.33;85.53;;;;;;;;;;4353086;32;20826;-56
2021/01/21 11:34:24;;;;;;;144.13;90.90;;;;;;;;;;4371932;32;20729;-56
2021/01/21 11:36:51;;;;;;;135.30;86.70;;;;;;;;;;4368647;32;20644;-56
2021/01/21 11:39:17;;;;;;;132.93;79.63;;;;;;;;;;4372878;32;20304;-55
2021/01/21 11:41:43;;;;;;;119.93;73.93;;;;;;;;;;4362903;32;20780;-56
2021/01/21 11:44:09;;;;;;;141.13;86.20;;;;;;;;;;4359944;32;20647;-55
2021/01/21 11:46:34;;;;;;;129.87;79.50;;;;;;;;;;4374196;32;20701;-59
2021/01/21 11:49:01;;;;;;;100.17;62.47;;;;;;;;;;4375131;32;20225;-59
2021/01/21 11:51:26;;;;;;;91.33;52.70;;;;;;;;;;4396083;32;20399;-59
2021/01/21 11:53:52;;;;;;;104.67;62.63;;;;;;;;;;4386064;32;20787;-59
2021/01/21 11:56:17;;;;;;;106.73;65.23;;;;;;;;;;4382668;32;20291;-58
2021/01/21 11:58:43;;;;;;;70.17;40.53;;;;;;;;;;4400121;32;20300;-58
2021/01/21 12:01:09;;;;;;;85.07;53.43;;;;;;;;;;4393402;32;20548;-55
2021/01/21 12:03:35;;;;;;;65.80;43.07;;;;;;;;;;4382132;32;20340;-60
2021/01/21 12:06:01;;;;;;;121.77;75.17;;;;;;;;;;4400745;32;20754;-60
2021/01/21 12:08:27;;;;;;;57.40;36.77;;;;;;;;;;4401946;32;20233;-60
2021/01/21 12:10:54;;;;;;;57.80;36.33;;;;;;;;;;4394861;32;20369;-61
2021/01/21 12:13:20;;;;;;;112.97;56.10;;;;;;;;;;4386606;32;20249;-60
2021/01/21 12:15:46;;;;;;;75.50;45.37;;;;;;;;;;4401852;32;20358;-57
2021/01/21 12:18:12;;;;;;;63.83;39.07;;;;;;;;;;4401958;32;20624;-57
2021/01/21 12:20:38;;;;;;;157.03;76.97;;;;;;;;;;4399867;32;20277;-59
2021/01/21 12:23:04;;;;;;;68.30;41.90;;;;;;;;;;4387601;32;20764;-60
2021/01/21 12:25:29;;;;;;;62.77;38.87;;;;;;;;;;4395910;32;20720;-60
2021/01/21 12:27:55;;;;;;;1003.60;527.90;;;;;;;;;;4400884;32;20229;-59
2021/01/21 12:30:21;;;;;;;170.97;81.43;;;;;;;;;;4401900;32;20350;-60
2021/01/21 12:32:46;;;;;;;70.17;40.23;;;;;;;;;;4402189;32;20647;-60
2021/01/21 12:35:13;;;;;;;54.13;36.87;;;;;;;;;;4400669;32;20706;-60
2021/01/21 12:37:40;;;;;;;52.87;32.80;;;;;;;;;;4401455;32;20267;-60
2021/01/21 12:40:07;;;;;;;59.63;37.67;;;;;;;;;;4382940;32;20296;-60
2021/01/21 12:42:32;;;;;;;80.73;41.67;;;;;;;;;;4399270;32;20299;-55
2021/01/21 12:44:58;;;;;;;69.83;42.63;;;;;;;;;;4401743;32;20424;-60
2021/01/21 12:47:24;;;;;;;30.40;19.63;;;;;;;;;;4399813;32;20301;-60
2021/01/21 12:49:49;;;;;;;25.70;17.10;;;;;;;;;;4402008;32;20329;-60
2021/01/21 12:52:15;;;;;;;31.27;20.40;;;;;;;;;;4398173;32;20342;-61
2021/01/21 12:54:47;;;;;;;35.23;18.90;;;;;;;;;;4401113;32;20682;-60
2021/01/21 12:57:13;;;;;;;31.77;19.70;;;;;;;;;;4400932;32;20367;-57
2021/01/21 12:59:39;;;;;;;34.33;21.07;;;;;;;;;;4402105;32;20318;-58
2021/01/21 13:02:05;;;;;;;32.10;15.93;;;;;;;;;;4401470;32;20580;-56
2021/01/21 13:04:30;;;;;;;267.07;112.70;;;;;;;;;;4401167;32;20368;-58
2021/01/21 13:06:56;;;;;;;77.33;39.27;;;;;;;;;;4401337;32;20331;-58
2021/01/21 13:09:21;;;;;;;67.03;37.43;;;;;;;;;;4402447;32;20272;-59
2021/01/21 13:11:47;;;;;;;46.33;26.50;;;;;;;;;;4399073;32;20308;-56
2021/01/21 13:14:12;;;;;;;39.50;23.07;;;;;;;;;;4401735;32;20335;-56
2021/01/21 13:16:38;;;;;;;38.03;24.40;;;;;;;;;;4400058;32;20225;-57
2021/01/21 13:19:03;;;;;;;46.03;26.07;;;;;;;;;;4398513;32;20250;-58
2021/01/21 13:21:29;;;;;;;47.33;26.63;;;;;;;;;;4378746;32;20710;-57
2021/01/21 13:23:58;;;;;;;32.80;19.57;;;;;;;;;;4380258;32;20312;-58
2021/01/21 13:26:25;;;;;;;32.37;19.93;;;;;;;;;;4382344;32;20469;-56
2021/01/21 13:28:50;;;;;;;34.63;22.23;;;;;;;;;;4386225;32;20222;-57
2021/01/21 13:31:16;;;;;;;33.30;19.50;;;;;;;;;;4392481;32;20362;-58
2021/01/21 13:33:41;;;;;;;31.13;21.13;;;;;;;;;;4400199;32;20698;-56
2021/01/21 13:36:07;;;;;;;33.43;20.40;;;;;;;;;;4399138;32;20225;-57
2021/01/21 13:38:33;;;;;;;35.43;18.13;;;;;;;;;;4399060;32;20353;-58
2021/01/21 13:40:59;;;;;;;31.30;19.20;;;;;;;;;;4400990;32;20813;-55
2021/01/21 13:43:24;;;;;;;38.47;20.73;;;;;;;;;;4400507;32;20286;-56
2021/01/21 13:45:51;;;;;;;35.97;23.13;;;;;;;;;;4401358;32;20287;-55
2021/01/21 13:48:16;;;;;;;46.37;22.00;;;;;;;;;;4401481;32;20315;-55
2021/01/21 13:50:42;;;;;;;41.43;26.10;;;;;;;;;;4400940;32;20301;-56
2021/01/21 13:53:07;;;;;;;54.93;28.67;;;;;;;;;;4401420;32;20252;-56
2021/01/21 13:55:33;;;;;;;52.67;30.13;;;;;;;;;;4398472;32;20693;-55
2021/01/21 13:57:58;;;;;;;61.40;31.20;;;;;;;;;;4392646;32;20233;-55